sensor_id;sensor_type;location;lat;lon;timestamp;P1;durP1;ratioP1;P2;durP2;ratioP2
15340;SDS011;7770;52.158;5.372;2024-01-30T00:00:24;20.70;;;17.77;;
15340;SDS011;7770;52.158;5.372;2024-01-30T00:03:10;20.60;;;18.23;;
15340;SDS011;7770;52.158;5.372;2024-01-30T00:05:56;21.70;;;17.83;;
15340;SDS011;7770;52.158;5.372;2024-01-30T00:08:42;20.47;;;18.27;;
15340;SDS011;7770;52.158;5.372;2024-01-30T00:11:31;21.07;;;18.20;;
15340;SDS011;7770;52.158;5.372;2024-01-30T00:14:17;20.37;;;18.13;;
15340;SDS011;7770;52.158;5.372;2024-01-30T00:17:04;21.27;;;18.10;;
15340;SDS011;7770;52.158;5.372;2024-01-30T00:19:49;20.13;;;17.97;;
15340;SDS011;7770;52.158;5.372;2024-01-30T00:22:35;23.67;;;17.80;;
15340;SDS011;7770;52.158;5.372;2024-01-30T00:25:21;19.33;;;17.33;;
15340;SDS011;7770;52.158;5.372;2024-01-30T00:28:07;20.30;;;18.13;;
15340;SDS011;7770;52.158;5.372;2024-01-30T00:30:53;22.57;;;17.87;;
15340;SDS011;7770;52.158;5.372;2024-01-30T00:33:40;21.13;;;17.33;;
15340;SDS011;7770;52.158;5.372;2024-01-30T00:36:26;20.37;;;18.03;;
15340;SDS011;7770;52.158;5.372;2024-01-30T00:39:15;22.10;;;18.50;;
15340;SDS011;7770;52.158;5.372;2024-01-30T00:42:01;21.10;;;17.80;;
15340;SDS011;7770;52.158;5.372;2024-01-30T00:44:47;21.60;;;19.17;;
15340;SDS011;7770;52.158;5.372;2024-01-30T00:47:33;20.33;;;18.10;;
15340;SDS011;7770;52.158;5.372;2024-01-30T00:50:19;21.90;;;18.90;;
15340;SDS011;7770;52.158;5.372;2024-01-30T00:53:05;21.00;;;18.70;;
15340;SDS011;7770;52.158;5.372;2024-01-30T00:55:51;20.70;;;18.40;;
15340;SDS011;7770;52.158;5.372;2024-01-30T00:58:37;23.47;;;19.30;;
15340;SDS011;7770;52.158;5.372;2024-01-30T01:01:23;21.67;;;19.17;;
15340;SDS011;7770;52.158;5.372;2024-01-30T01:04:09;22.93;;;19.83;;
15340;SDS011;7770;52.158;5.372;2024-01-30T01:06:55;24.80;;;20.23;;
15340;SDS011;7770;52.158;5.372;2024-01-30T01:09:41;22.53;;;20.10;;
15340;SDS011;7770;52.158;5.372;2024-01-30T01:12:27;24.23;;;21.00;;
15340;SDS011;7770;52.158;5.372;2024-01-30T01:15:13;26.00;;;20.53;;
15340;SDS011;7770;52.158;5.372;2024-01-30T01:17:59;25.30;;;20.30;;
15340;SDS011;7770;52.158;5.372;2024-01-30T01:20:45;25.07;;;21.57;;
15340;SDS011;7770;52.158;5.372;2024-01-30T01:23:31;24.63;;;21.70;;
15340;SDS011;7770;52.158;5.372;2024-01-30T01:26:17;24.73;;;21.67;;
15340;SDS011;7770;52.158;5.372;2024-01-30T01:29:03;25.90;;;22.53;;
15340;SDS011;7770;52.158;5.372;2024-01-30T01:31:55;26.77;;;21.47;;
15340;SDS011;7770;52.158;5.372;2024-01-30T01:34:41;25.07;;;21.53;;
15340;SDS011;7770;52.158;5.372;2024-01-30T01:37:27;25.70;;;22.07;;
15340;SDS011;7770;52.158;5.372;2024-01-30T01:40:13;25.77;;;21.80;;
15340;SDS011;7770;52.158;5.372;2024-01-30T01:43:02;26.57;;;22.73;;
15340;SDS011;7770;52.158;5.372;2024-01-30T01:45:50;25.37;;;22.13;;
15340;SDS011;7770;52.158;5.372;2024-01-30T01:48:36;26.50;;;22.00;;
15340;SDS011;7770;52.158;5.372;2024-01-30T01:51:25;25.00;;;22.33;;
15340;SDS011;7770;52.158;5.372;2024-01-30T01:54:13;24.40;;;21.80;;
15340;SDS011;7770;52.158;5.372;2024-01-30T01:57:01;27.03;;;22.80;;
15340;SDS011;7770;52.158;5.372;2024-01-30T01:59:47;27.53;;;22.07;;
15340;SDS011;7770;52.158;5.372;2024-01-30T02:02:35;25.97;;;23.07;;
15340;SDS011;7770;52.158;5.372;2024-01-30T02:05:22;28.03;;;23.20;;
15340;SDS011;7770;52.158;5.372;2024-01-30T02:08:08;30.47;;;23.57;;
15340;SDS011;7770;52.158;5.372;2024-01-30T02:10:54;27.57;;;22.93;;
15340;SDS011;7770;52.158;5.372;2024-01-30T02:13:41;27.97;;;23.43;;
15340;SDS011;7770;52.158;5.372;2024-01-30T02:16:27;27.57;;;23.13;;
15340;SDS011;7770;52.158;5.372;2024-01-30T02:19:13;27.73;;;22.83;;
15340;SDS011;7770;52.158;5.372;2024-01-30T02:21:59;30.70;;;23.83;;
15340;SDS011;7770;52.158;5.372;2024-01-30T02:24:45;29.30;;;22.90;;
15340;SDS011;7770;52.158;5.372;2024-01-30T02:27:31;26.73;;;21.97;;
15340;SDS011;7770;52.158;5.372;2024-01-30T02:30:17;25.50;;;21.43;;
15340;SDS011;7770;52.158;5.372;2024-01-30T02:33:03;25.07;;;21.97;;
15340;SDS011;7770;52.158;5.372;2024-01-30T02:35:49;25.50;;;21.20;;
15340;SDS011;7770;52.158;5.372;2024-01-30T02:38:35;24.50;;;21.37;;
15340;SDS011;7770;52.158;5.372;2024-01-30T02:41:21;25.77;;;21.53;;
15340;SDS011;7770;52.158;5.372;2024-01-30T02:44:07;24.07;;;21.13;;
15340;SDS011;7770;52.158;5.372;2024-01-30T02:46:53;24.23;;;21.63;;
15340;SDS011;7770;52.158;5.372;2024-01-30T02:49:40;26.57;;;21.20;;
15340;SDS011;7770;52.158;5.372;2024-01-30T02:52:26;28.10;;;21.43;;
15340;SDS011;7770;52.158;5.372;2024-01-30T02:55:12;25.40;;;20.60;;
15340;SDS011;7770;52.158;5.372;2024-01-30T02:57:58;22.57;;;20.17;;
15340;SDS011;7770;52.158;5.372;2024-01-30T03:00:44;25.17;;;20.73;;
15340;SDS011;7770;52.158;5.372;2024-01-30T03:03:30;24.70;;;21.23;;
15340;SDS011;7770;52.158;5.372;2024-01-30T03:06:16;24.73;;;20.30;;
15340;SDS011;7770;52.158;5.372;2024-01-30T03:09:02;27.43;;;21.67;;
15340;SDS011;7770;52.158;5.372;2024-01-30T03:11:50;26.00;;;21.87;;
15340;SDS011;7770;52.158;5.372;2024-01-30T03:14:36;26.40;;;22.70;;
15340;SDS011;7770;52.158;5.372;2024-01-30T03:17:22;26.50;;;22.33;;
15340;SDS011;7770;52.158;5.372;2024-01-30T03:20:09;27.80;;;23.90;;
15340;SDS011;7770;52.158;5.372;2024-01-30T03:22:56;28.53;;;22.90;;
15340;SDS011;7770;52.158;5.372;2024-01-30T03:25:42;29.47;;;23.73;;
15340;SDS011;7770;52.158;5.372;2024-01-30T03:28:28;28.07;;;23.27;;
15340;SDS011;7770;52.158;5.372;2024-01-30T03:31:15;26.70;;;23.33;;
15340;SDS011;7770;52.158;5.372;2024-01-30T03:34:01;29.60;;;23.27;;
15340;SDS011;7770;52.158;5.372;2024-01-30T03:36:47;29.23;;;24.10;;
15340;SDS011;7770;52.158;5.372;2024-01-30T03:39:33;29.53;;;24.33;;
15340;SDS011;7770;52.158;5.372;2024-01-30T03:42:19;29.20;;;24.37;;
15340;SDS011;7770;52.158;5.372;2024-01-30T03:45:06;29.00;;;24.03;;
15340;SDS011;7770;52.158;5.372;2024-01-30T03:47:52;27.90;;;23.83;;
15340;SDS011;7770;52.158;5.372;2024-01-30T03:50:38;27.87;;;22.90;;
15340;SDS011;7770;52.158;5.372;2024-01-30T03:53:24;26.87;;;22.70;;
15340;SDS011;7770;52.158;5.372;2024-01-30T03:56:10;28.70;;;23.70;;
15340;SDS011;7770;52.158;5.372;2024-01-30T03:58:58;30.57;;;22.47;;
15340;SDS011;7770;52.158;5.372;2024-01-30T04:01:46;28.00;;;22.27;;
15340;SDS011;7770;52.158;5.372;2024-01-30T04:04:32;25.93;;;21.87;;
15340;SDS011;7770;52.158;5.372;2024-01-30T04:07:18;26.00;;;21.10;;
15340;SDS011;7770;52.158;5.372;2024-01-30T04:10:04;25.57;;;21.03;;
15340;SDS011;7770;52.158;5.372;2024-01-30T04:12:51;25.17;;;21.60;;
15340;SDS011;7770;52.158;5.372;2024-01-30T04:15:37;24.10;;;21.50;;
15340;SDS011;7770;52.158;5.372;2024-01-30T04:18:23;23.00;;;19.53;;
15340;SDS011;7770;52.158;5.372;2024-01-30T04:21:09;25.23;;;19.97;;
15340;SDS011;7770;52.158;5.372;2024-01-30T04:23:55;24.17;;;19.20;;
15340;SDS011;7770;52.158;5.372;2024-01-30T04:26:41;23.03;;;18.33;;
15340;SDS011;7770;52.158;5.372;2024-01-30T04:29:27;22.07;;;19.13;;
15340;SDS011;7770;52.158;5.372;2024-01-30T04:32:13;21.57;;;18.03;;
15340;SDS011;7770;52.158;5.372;2024-01-30T04:34:59;21.33;;;18.03;;
15340;SDS011;7770;52.158;5.372;2024-01-30T04:37:45;20.10;;;17.50;;
15340;SDS011;7770;52.158;5.372;2024-01-30T04:40:31;19.57;;;17.10;;
15340;SDS011;7770;52.158;5.372;2024-01-30T04:43:17;20.03;;;16.93;;
15340;SDS011;7770;52.158;5.372;2024-01-30T04:46:04;22.37;;;17.67;;
15340;SDS011;7770;52.158;5.372;2024-01-30T04:48:50;18.33;;;15.80;;
15340;SDS011;7770;52.158;5.372;2024-01-30T04:51:36;18.87;;;16.73;;
15340;SDS011;7770;52.158;5.372;2024-01-30T04:54:23;20.53;;;16.50;;
15340;SDS011;7770;52.158;5.372;2024-01-30T04:57:09;23.97;;;17.23;;
15340;SDS011;7770;52.158;5.372;2024-01-30T04:59:57;18.30;;;16.33;;
15340;SDS011;7770;52.158;5.372;2024-01-30T05:02:43;19.90;;;16.63;;
15340;SDS011;7770;52.158;5.372;2024-01-30T05:05:29;17.73;;;15.93;;
15340;SDS011;7770;52.158;5.372;2024-01-30T05:08:15;20.00;;;16.37;;
15340;SDS011;7770;52.158;5.372;2024-01-30T05:11:01;18.23;;;15.77;;
15340;SDS011;7770;52.158;5.372;2024-01-30T05:13:51;19.50;;;15.37;;
15340;SDS011;7770;52.158;5.372;2024-01-30T05:16:37;17.93;;;15.67;;
15340;SDS011;7770;52.158;5.372;2024-01-30T05:19:23;18.23;;;16.13;;
15340;SDS011;7770;52.158;5.372;2024-01-30T05:22:09;17.27;;;15.30;;
15340;SDS011;7770;52.158;5.372;2024-01-30T05:24:55;19.33;;;15.33;;
15340;SDS011;7770;52.158;5.372;2024-01-30T05:27:41;18.10;;;14.93;;
15340;SDS011;7770;52.158;5.372;2024-01-30T05:30:27;17.17;;;15.37;;
15340;SDS011;7770;52.158;5.372;2024-01-30T05:33:13;17.87;;;15.17;;
15340;SDS011;7770;52.158;5.372;2024-01-30T05:35:59;17.67;;;15.30;;
15340;SDS011;7770;52.158;5.372;2024-01-30T05:38:45;17.73;;;14.70;;
15340;SDS011;7770;52.158;5.372;2024-01-30T05:41:31;17.07;;;15.27;;
15340;SDS011;7770;52.158;5.372;2024-01-30T05:44:17;16.23;;;14.50;;
15340;SDS011;7770;52.158;5.372;2024-01-30T05:47:03;16.93;;;15.13;;
15340;SDS011;7770;52.158;5.372;2024-01-30T05:49:49;17.00;;;15.20;;
15340;SDS011;7770;52.158;5.372;2024-01-30T05:52:35;17.07;;;14.90;;
15340;SDS011;7770;52.158;5.372;2024-01-30T05:55:21;17.70;;;14.37;;
15340;SDS011;7770;52.158;5.372;2024-01-30T05:58:07;16.57;;;14.77;;
15340;SDS011;7770;52.158;5.372;2024-01-30T06:00:53;18.27;;;14.40;;
15340;SDS011;7770;52.158;5.372;2024-01-30T06:03:39;18.73;;;14.83;;
15340;SDS011;7770;52.158;5.372;2024-01-30T06:06:25;15.40;;;13.73;;
15340;SDS011;7770;52.158;5.372;2024-01-30T06:09:11;17.57;;;15.20;;
15340;SDS011;7770;52.158;5.372;2024-01-30T06:11:58;17.17;;;14.30;;
15340;SDS011;7770;52.158;5.372;2024-01-30T06:14:44;18.47;;;14.43;;
15340;SDS011;7770;52.158;5.372;2024-01-30T06:17:30;16.83;;;14.00;;
15340;SDS011;7770;52.158;5.372;2024-01-30T06:20:16;16.13;;;14.03;;
15340;SDS011;7770;52.158;5.372;2024-01-30T06:23:02;16.50;;;14.77;;
15340;SDS011;7770;52.158;5.372;2024-01-30T06:25:48;17.43;;;14.60;;
15340;SDS011;7770;52.158;5.372;2024-01-30T06:28:34;18.00;;;14.40;;
15340;SDS011;7770;52.158;5.372;2024-01-30T06:31:20;16.03;;;14.33;;
15340;SDS011;7770;52.158;5.372;2024-01-30T06:34:06;16.07;;;14.40;;
15340;SDS011;7770;52.158;5.372;2024-01-30T06:36:53;17.50;;;14.67;;
15340;SDS011;7770;52.158;5.372;2024-01-30T06:39:39;15.43;;;13.83;;
15340;SDS011;7770;52.158;5.372;2024-01-30T06:42:25;15.60;;;14.00;;
15340;SDS011;7770;52.158;5.372;2024-01-30T06:45:11;18.77;;;15.07;;
15340;SDS011;7770;52.158;5.372;2024-01-30T06:47:57;15.27;;;13.60;;
15340;SDS011;7770;52.158;5.372;2024-01-30T06:50:43;17.17;;;13.70;;
15340;SDS011;7770;52.158;5.372;2024-01-30T06:53:30;15.57;;;13.50;;
15340;SDS011;7770;52.158;5.372;2024-01-30T06:56:16;17.13;;;14.40;;
15340;SDS011;7770;52.158;5.372;2024-01-30T06:59:06;16.57;;;13.47;;
15340;SDS011;7770;52.158;5.372;2024-01-30T07:01:52;16.83;;;13.67;;
15340;SDS011;7770;52.158;5.372;2024-01-30T07:04:38;15.50;;;13.77;;
15340;SDS011;7770;52.158;5.372;2024-01-30T07:07:25;15.83;;;14.10;;
15340;SDS011;7770;52.158;5.372;2024-01-30T07:10:11;17.33;;;13.93;;
15340;SDS011;7770;52.158;5.372;2024-01-30T07:12:57;15.80;;;14.07;;
15340;SDS011;7770;52.158;5.372;2024-01-30T07:15:43;18.40;;;14.37;;
15340;SDS011;7770;52.158;5.372;2024-01-30T07:18:29;15.70;;;14.00;;
15340;SDS011;7770;52.158;5.372;2024-01-30T07:21:16;17.27;;;14.20;;
15340;SDS011;7770;52.158;5.372;2024-01-30T07:24:02;15.87;;;14.17;;
15340;SDS011;7770;52.158;5.372;2024-01-30T07:26:48;16.33;;;14.00;;
15340;SDS011;7770;52.158;5.372;2024-01-30T07:29:34;19.33;;;14.40;;
15340;SDS011;7770;52.158;5.372;2024-01-30T07:32:20;15.90;;;13.97;;
15340;SDS011;7770;52.158;5.372;2024-01-30T07:35:06;16.30;;;14.33;;
15340;SDS011;7770;52.158;5.372;2024-01-30T07:37:53;16.37;;;14.60;;
15340;SDS011;7770;52.158;5.372;2024-01-30T07:40:39;16.80;;;14.23;;
15340;SDS011;7770;52.158;5.372;2024-01-30T07:43:25;17.80;;;14.17;;
15340;SDS011;7770;52.158;5.372;2024-01-30T07:46:11;16.70;;;13.80;;
15340;SDS011;7770;52.158;5.372;2024-01-30T07:48:57;16.07;;;13.80;;
15340;SDS011;7770;52.158;5.372;2024-01-30T07:51:44;18.67;;;14.20;;
15340;SDS011;7770;52.158;5.372;2024-01-30T07:54:30;20.23;;;14.20;;
15340;SDS011;7770;52.158;5.372;2024-01-30T07:57:18;24.70;;;14.47;;
15340;SDS011;7770;52.158;5.372;2024-01-30T08:00:04;16.23;;;13.77;;
15340;SDS011;7770;52.158;5.372;2024-01-30T08:02:52;16.63;;;13.73;;
15340;SDS011;7770;52.158;5.372;2024-01-30T08:05:40;20.70;;;14.93;;
15340;SDS011;7770;52.158;5.372;2024-01-30T08:08:26;16.63;;;14.30;;
15340;SDS011;7770;52.158;5.372;2024-01-30T08:11:12;17.30;;;13.03;;
15340;SDS011;7770;52.158;5.372;2024-01-30T08:13:58;17.07;;;12.90;;
15340;SDS011;7770;52.158;5.372;2024-01-30T08:16:44;16.93;;;13.77;;
15340;SDS011;7770;52.158;5.372;2024-01-30T08:19:30;17.87;;;14.03;;
15340;SDS011;7770;52.158;5.372;2024-01-30T08:22:16;17.57;;;13.43;;
15340;SDS011;7770;52.158;5.372;2024-01-30T08:25:02;19.50;;;14.43;;
15340;SDS011;7770;52.158;5.372;2024-01-30T08:27:49;17.43;;;13.67;;
15340;SDS011;7770;52.158;5.372;2024-01-30T08:30:35;15.63;;;12.83;;
15340;SDS011;7770;52.158;5.372;2024-01-30T08:33:21;17.00;;;13.80;;
15340;SDS011;7770;52.158;5.372;2024-01-30T08:36:07;21.57;;;13.07;;
15340;SDS011;7770;52.158;5.372;2024-01-30T08:38:53;15.70;;;13.00;;
15340;SDS011;7770;52.158;5.372;2024-01-30T08:41:39;17.07;;;13.00;;
15340;SDS011;7770;52.158;5.372;2024-01-30T08:44:25;17.57;;;13.77;;
15340;SDS011;7770;52.158;5.372;2024-01-30T08:47:11;18.13;;;13.77;;
15340;SDS011;7770;52.158;5.372;2024-01-30T08:49:57;18.43;;;13.53;;
15340;SDS011;7770;52.158;5.372;2024-01-30T08:52:43;18.77;;;13.57;;
15340;SDS011;7770;52.158;5.372;2024-01-30T08:55:29;17.57;;;13.93;;
15340;SDS011;7770;52.158;5.372;2024-01-30T08:58:15;20.77;;;14.10;;
15340;SDS011;7770;52.158;5.372;2024-01-30T09:01:03;17.03;;;13.10;;
15340;SDS011;7770;52.158;5.372;2024-01-30T09:03:51;16.47;;;13.07;;
15340;SDS011;7770;52.158;5.372;2024-01-30T09:06:37;15.43;;;13.30;;
15340;SDS011;7770;52.158;5.372;2024-01-30T09:09:24;19.90;;;12.93;;
15340;SDS011;7770;52.158;5.372;2024-01-30T09:12:10;16.53;;;12.37;;
15340;SDS011;7770;52.158;5.372;2024-01-30T09:14:56;20.10;;;13.40;;
15340;SDS011;7770;52.158;5.372;2024-01-30T09:17:42;15.43;;;12.93;;
15340;SDS011;7770;52.158;5.372;2024-01-30T09:20:28;18.57;;;12.93;;
15340;SDS011;7770;52.158;5.372;2024-01-30T09:23:14;18.73;;;13.97;;
15340;SDS011;7770;52.158;5.372;2024-01-30T09:26:02;19.30;;;13.60;;
15340;SDS011;7770;52.158;5.372;2024-01-30T09:28:48;18.57;;;12.97;;
15340;SDS011;7770;52.158;5.372;2024-01-30T09:31:34;17.90;;;13.83;;
15340;SDS011;7770;52.158;5.372;2024-01-30T09:34:20;17.00;;;13.50;;
15340;SDS011;7770;52.158;5.372;2024-01-30T09:37:07;19.93;;;13.17;;
15340;SDS011;7770;52.158;5.372;2024-01-30T09:39:53;19.47;;;13.60;;
15340;SDS011;7770;52.158;5.372;2024-01-30T09:42:39;16.17;;;13.40;;
15340;SDS011;7770;52.158;5.372;2024-01-30T09:45:28;18.37;;;13.43;;
15340;SDS011;7770;52.158;5.372;2024-01-30T09:48:15;17.73;;;14.20;;
15340;SDS011;7770;52.158;5.372;2024-01-30T09:51:01;18.03;;;14.00;;
15340;SDS011;7770;52.158;5.372;2024-01-30T09:53:48;20.93;;;13.80;;
15340;SDS011;7770;52.158;5.372;2024-01-30T09:56:34;17.03;;;13.30;;
15340;SDS011;7770;52.158;5.372;2024-01-30T09:59:20;17.90;;;13.43;;
15340;SDS011;7770;52.158;5.372;2024-01-30T10:02:07;18.03;;;14.23;;
15340;SDS011;7770;52.158;5.372;2024-01-30T10:04:53;16.17;;;13.50;;
15340;SDS011;7770;52.158;5.372;2024-01-30T10:07:39;16.70;;;13.07;;
15340;SDS011;7770;52.158;5.372;2024-01-30T10:10:38;18.83;;;13.23;;
15340;SDS011;7770;52.158;5.372;2024-01-30T10:13:24;15.60;;;13.60;;
15340;SDS011;7770;52.158;5.372;2024-01-30T10:16:13;22.03;;;14.60;;
15340;SDS011;7770;52.158;5.372;2024-01-30T10:19:02;18.60;;;13.70;;
15340;SDS011;7770;52.158;5.372;2024-01-30T10:21:48;18.60;;;13.27;;
15340;SDS011;7770;52.158;5.372;2024-01-30T10:24:34;18.33;;;13.90;;
15340;SDS011;7770;52.158;5.372;2024-01-30T10:27:25;19.30;;;13.40;;
15340;SDS011;7770;52.158;5.372;2024-01-30T10:30:12;18.43;;;12.97;;
15340;SDS011;7770;52.158;5.372;2024-01-30T10:32:59;18.33;;;13.03;;
15340;SDS011;7770;52.158;5.372;2024-01-30T10:35:45;16.33;;;12.77;;
15340;SDS011;7770;52.158;5.372;2024-01-30T10:38:32;16.20;;;13.07;;
15340;SDS011;7770;52.158;5.372;2024-01-30T10:41:19;14.73;;;12.80;;
15340;SDS011;7770;52.158;5.372;2024-01-30T10:44:18;17.23;;;13.40;;
15340;SDS011;7770;52.158;5.372;2024-01-30T10:47:08;16.57;;;12.73;;
15340;SDS011;7770;52.158;5.372;2024-01-30T10:50:00;19.30;;;13.10;;
15340;SDS011;7770;52.158;5.372;2024-01-30T10:52:48;14.43;;;12.90;;
15340;SDS011;7770;52.158;5.372;2024-01-30T10:55:35;15.47;;;12.73;;
15340;SDS011;7770;52.158;5.372;2024-01-30T10:58:24;18.07;;;13.33;;
15340;SDS011;7770;52.158;5.372;2024-01-30T11:01:11;17.37;;;12.83;;
15340;SDS011;7770;52.158;5.372;2024-01-30T11:03:58;15.67;;;12.13;;
15340;SDS011;7770;52.158;5.372;2024-01-30T11:06:44;12.77;;;10.80;;
15340;SDS011;7770;52.158;5.372;2024-01-30T11:09:30;13.73;;;10.80;;
15340;SDS011;7770;52.158;5.372;2024-01-30T11:12:25;13.13;;;10.27;;
15340;SDS011;7770;52.158;5.372;2024-01-30T11:15:12;10.63;;;9.00;;
15340;SDS011;7770;52.158;5.372;2024-01-30T11:18:01;12.77;;;9.37;;
15340;SDS011;7770;52.158;5.372;2024-01-30T11:20:47;14.20;;;9.27;;
15340;SDS011;7770;52.158;5.372;2024-01-30T11:23:34;11.37;;;8.23;;
15340;SDS011;7770;52.158;5.372;2024-01-30T11:26:23;10.13;;;7.53;;
15340;SDS011;7770;52.158;5.372;2024-01-30T11:29:14;12.37;;;7.00;;
15340;SDS011;7770;52.158;5.372;2024-01-30T11:32:00;10.33;;;5.83;;
15340;SDS011;7770;52.158;5.372;2024-01-30T11:34:46;9.47;;;5.23;;
15340;SDS011;7770;52.158;5.372;2024-01-30T11:37:32;8.83;;;6.17;;
15340;SDS011;7770;52.158;5.372;2024-01-30T11:40:23;7.60;;;5.90;;
15340;SDS011;7770;52.158;5.372;2024-01-30T11:43:11;7.17;;;4.30;;
15340;SDS011;7770;52.158;5.372;2024-01-30T11:45:58;8.20;;;3.63;;
15340;SDS011;7770;52.158;5.372;2024-01-30T11:48:44;7.47;;;3.53;;
15340;SDS011;7770;52.158;5.372;2024-01-30T11:51:30;6.83;;;3.23;;
15340;SDS011;7770;52.158;5.372;2024-01-30T11:54:17;5.70;;;3.23;;
15340;SDS011;7770;52.158;5.372;2024-01-30T11:57:03;6.20;;;3.40;;
15340;SDS011;7770;52.158;5.372;2024-01-30T11:59:50;6.97;;;3.63;;
15340;SDS011;7770;52.158;5.372;2024-01-30T12:02:39;6.50;;;3.60;;
15340;SDS011;7770;52.158;5.372;2024-01-30T12:05:26;5.57;;;3.80;;
15340;SDS011;7770;52.158;5.372;2024-01-30T12:08:16;6.00;;;3.70;;
15340;SDS011;7770;52.158;5.372;2024-01-30T12:11:02;6.63;;;3.90;;
15340;SDS011;7770;52.158;5.372;2024-01-30T12:13:53;4.87;;;4.03;;
15340;SDS011;7770;52.158;5.372;2024-01-30T12:16:39;6.73;;;3.80;;
15340;SDS011;7770;52.158;5.372;2024-01-30T12:19:26;6.03;;;3.90;;
15340;SDS011;7770;52.158;5.372;2024-01-30T12:22:12;10.70;;;5.33;;
15340;SDS011;7770;52.158;5.372;2024-01-30T12:25:00;10.60;;;5.73;;
15340;SDS011;7770;52.158;5.372;2024-01-30T12:27:46;7.70;;;5.17;;
15340;SDS011;7770;52.158;5.372;2024-01-30T12:30:37;10.23;;;5.00;;
15340;SDS011;7770;52.158;5.372;2024-01-30T12:33:26;8.40;;;4.93;;
15340;SDS011;7770;52.158;5.372;2024-01-30T12:36:13;9.20;;;5.20;;
15340;SDS011;7770;52.158;5.372;2024-01-30T12:38:59;9.50;;;5.20;;
15340;SDS011;7770;52.158;5.372;2024-01-30T12:41:46;5.63;;;4.43;;
15340;SDS011;7770;52.158;5.372;2024-01-30T12:44:32;7.20;;;4.77;;
15340;SDS011;7770;52.158;5.372;2024-01-30T12:47:18;6.40;;;4.80;;
15340;SDS011;7770;52.158;5.372;2024-01-30T12:50:07;6.47;;;4.63;;
15340;SDS011;7770;52.158;5.372;2024-01-30T12:52:53;6.60;;;4.67;;
15340;SDS011;7770;52.158;5.372;2024-01-30T12:55:40;7.60;;;4.87;;
15340;SDS011;7770;52.158;5.372;2024-01-30T12:58:26;6.23;;;4.57;;
15340;SDS011;7770;52.158;5.372;2024-01-30T13:01:12;7.93;;;5.30;;
15340;SDS011;7770;52.158;5.372;2024-01-30T13:03:58;8.30;;;5.10;;
15340;SDS011;7770;52.158;5.372;2024-01-30T13:06:44;8.30;;;5.07;;
15340;SDS011;7770;52.158;5.372;2024-01-30T13:09:31;8.40;;;5.10;;
15340;SDS011;7770;52.158;5.372;2024-01-30T13:12:17;5.67;;;3.63;;
15340;SDS011;7770;52.158;5.372;2024-01-30T13:15:03;6.07;;;3.60;;
15340;SDS011;7770;52.158;5.372;2024-01-30T13:17:50;4.23;;;3.40;;
15340;SDS011;7770;52.158;5.372;2024-01-30T13:20:39;6.27;;;2.80;;
15340;SDS011;7770;52.158;5.372;2024-01-30T13:23:25;6.63;;;2.80;;
15340;SDS011;7770;52.158;5.372;2024-01-30T13:26:11;7.07;;;2.30;;
15340;SDS011;7770;52.158;5.372;2024-01-30T13:28:57;2.17;;;1.90;;
15340;SDS011;7770;52.158;5.372;2024-01-30T13:31:44;5.33;;;2.30;;
15340;SDS011;7770;52.158;5.372;2024-01-30T13:34:31;7.43;;;2.80;;
15340;SDS011;7770;52.158;5.372;2024-01-30T13:37:17;5.97;;;2.90;;
15340;SDS011;7770;52.158;5.372;2024-01-30T13:40:04;4.07;;;2.67;;
15340;SDS011;7770;52.158;5.372;2024-01-30T13:42:54;4.60;;;3.00;;
15340;SDS011;7770;52.158;5.372;2024-01-30T13:45:40;6.83;;;3.50;;
15340;SDS011;7770;52.158;5.372;2024-01-30T13:48:27;4.83;;;3.20;;
15340;SDS011;7770;52.158;5.372;2024-01-30T13:51:15;5.90;;;3.87;;
15340;SDS011;7770;52.158;5.372;2024-01-30T13:54:02;5.33;;;3.27;;
15340;SDS011;7770;52.158;5.372;2024-01-30T13:56:48;6.77;;;3.37;;
15340;SDS011;7770;52.158;5.372;2024-01-30T13:59:34;6.10;;;4.17;;
15340;SDS011;7770;52.158;5.372;2024-01-30T14:02:20;5.93;;;3.67;;
15340;SDS011;7770;52.158;5.372;2024-01-30T14:05:06;8.10;;;4.20;;
15340;SDS011;7770;52.158;5.372;2024-01-30T14:07:53;6.10;;;3.87;;
15340;SDS011;7770;52.158;5.372;2024-01-30T14:10:40;5.53;;;3.77;;
15340;SDS011;7770;52.158;5.372;2024-01-30T14:13:26;5.60;;;4.00;;
15340;SDS011;7770;52.158;5.372;2024-01-30T14:16:12;6.13;;;4.67;;
15340;SDS011;7770;52.158;5.372;2024-01-30T14:18:58;8.67;;;4.33;;
15340;SDS011;7770;52.158;5.372;2024-01-30T14:21:44;7.10;;;4.40;;
15340;SDS011;7770;52.158;5.372;2024-01-30T14:24:30;9.47;;;4.50;;
15340;SDS011;7770;52.158;5.372;2024-01-30T14:27:16;8.27;;;4.00;;
15340;SDS011;7770;52.158;5.372;2024-01-30T14:30:02;8.80;;;3.90;;
15340;SDS011;7770;52.158;5.372;2024-01-30T14:32:48;7.87;;;4.00;;
15340;SDS011;7770;52.158;5.372;2024-01-30T14:35:35;6.47;;;3.77;;
15340;SDS011;7770;52.158;5.372;2024-01-30T14:38:21;7.13;;;3.77;;
15340;SDS011;7770;52.158;5.372;2024-01-30T14:41:07;6.90;;;4.13;;
15340;SDS011;7770;52.158;5.372;2024-01-30T14:43:53;7.10;;;3.73;;
15340;SDS011;7770;52.158;5.372;2024-01-30T14:46:39;6.13;;;4.47;;
15340;SDS011;7770;52.158;5.372;2024-01-30T14:49:26;9.03;;;4.43;;
15340;SDS011;7770;52.158;5.372;2024-01-30T14:52:13;6.63;;;5.37;;
15340;SDS011;7770;52.158;5.372;2024-01-30T14:54:59;9.67;;;6.60;;
15340;SDS011;7770;52.158;5.372;2024-01-30T14:57:45;8.63;;;6.37;;
15340;SDS011;7770;52.158;5.372;2024-01-30T15:00:31;8.00;;;6.00;;
15340;SDS011;7770;52.158;5.372;2024-01-30T15:03:17;8.87;;;7.27;;
15340;SDS011;7770;52.158;5.372;2024-01-30T15:06:03;8.80;;;7.87;;
15340;SDS011;7770;52.158;5.372;2024-01-30T15:08:50;10.03;;;8.70;;
15340;SDS011;7770;52.158;5.372;2024-01-30T15:11:37;13.33;;;8.97;;
15340;SDS011;7770;52.158;5.372;2024-01-30T15:14:23;11.43;;;10.23;;
15340;SDS011;7770;52.158;5.372;2024-01-30T15:17:09;11.20;;;10.07;;
15340;SDS011;7770;52.158;5.372;2024-01-30T15:19:55;11.73;;;10.67;;
15340;SDS011;7770;52.158;5.372;2024-01-30T15:22:42;12.17;;;11.07;;
15340;SDS011;7770;52.158;5.372;2024-01-30T15:25:30;12.83;;;11.47;;
15340;SDS011;7770;52.158;5.372;2024-01-30T15:28:16;14.27;;;12.77;;
15340;SDS011;7770;52.158;5.372;2024-01-30T15:31:02;13.63;;;12.20;;
15340;SDS011;7770;52.158;5.372;2024-01-30T15:33:51;14.23;;;12.80;;
15340;SDS011;7770;52.158;5.372;2024-01-30T15:36:37;13.67;;;12.27;;
15340;SDS011;7770;52.158;5.372;2024-01-30T15:39:23;15.57;;;12.83;;
15340;SDS011;7770;52.158;5.372;2024-01-30T15:42:09;13.03;;;11.70;;
15340;SDS011;7770;52.158;5.372;2024-01-30T15:44:55;14.67;;;13.17;;
15340;SDS011;7770;52.158;5.372;2024-01-30T15:47:42;14.73;;;13.10;;
15340;SDS011;7770;52.158;5.372;2024-01-30T15:50:28;14.80;;;13.30;;
15340;SDS011;7770;52.158;5.372;2024-01-30T15:53:14;15.10;;;12.93;;
15340;SDS011;7770;52.158;5.372;2024-01-30T15:56:00;14.43;;;12.93;;
15340;SDS011;7770;52.158;5.372;2024-01-30T15:58:46;15.30;;;13.70;;
15340;SDS011;7770;52.158;5.372;2024-01-30T16:01:34;16.17;;;13.70;;
15340;SDS011;7770;52.158;5.372;2024-01-30T16:04:20;15.10;;;13.50;;
15340;SDS011;7770;52.158;5.372;2024-01-30T16:07:09;16.40;;;14.70;;
15340;SDS011;7770;52.158;5.372;2024-01-30T16:09:55;15.83;;;14.17;;
15340;SDS011;7770;52.158;5.372;2024-01-30T16:12:41;16.30;;;14.67;;
15340;SDS011;7770;52.158;5.372;2024-01-30T16:15:31;15.57;;;14.07;;
15340;SDS011;7770;52.158;5.372;2024-01-30T16:18:17;15.73;;;14.23;;
15340;SDS011;7770;52.158;5.372;2024-01-30T16:21:03;16.60;;;14.90;;
15340;SDS011;7770;52.158;5.372;2024-01-30T16:23:49;17.30;;;15.13;;
15340;SDS011;7770;52.158;5.372;2024-01-30T16:26:35;18.00;;;14.83;;
15340;SDS011;7770;52.158;5.372;2024-01-30T16:29:21;17.20;;;15.47;;
15340;SDS011;7770;52.158;5.372;2024-01-30T16:32:07;17.53;;;14.33;;
15340;SDS011;7770;52.158;5.372;2024-01-30T16:34:53;15.10;;;13.57;;